Time;durP1;ratioP1;P1;durP2;ratioP2;P2;SDS_P1;SDS_P2;PMS_P1;PMS_P2;Temp;Humidity;BMP_temperature;BMP_pressure;BME280_temperature;BME280_humidity;BME280_pressure;Samples;Min_cycle;Max_cycle;Signal;HPM_P1;HPM_P2
2021/07/27 02:47:40;;;;;;;;;;;15.40;99.90;;;;;;5;36058225;39061643;-87
2021/07/27 02:51:01;;;;;;;;;;;15.30;99.90;;;;;;5;36019579;39020065;-87
2021/07/27 02:54:13;;;;;;;;;;;15.30;99.90;;;;;;5;36019795;39020646;-87
2021/07/27 02:57:26;;;;;;;;;;;15.30;99.90;;;;;;5;36017761;39019857;-87
2021/07/27 03:00:40;;;;;;;;;;;15.30;99.90;;;;;;5;36017655;39769403;-86
2021/07/27 03:03:50;;;;;;;;;;;15.30;99.90;;;;;;5;36017865;39021115;-87
2021/07/27 03:07:05;;;;;;;;;;;15.20;99.90;;;;;;5;36016264;39021232;-87
2021/07/27 03:13:30;;;;;;;;;;;15.20;99.90;;;;;;5;36017600;39017496;-86
2021/07/27 03:16:40;;;;;;;;;;;15.30;99.90;;;;;;5;36014102;39016823;-87
2021/07/27 03:19:53;;;;;;;;;;;15.30;99.90;;;;;;5;36014186;39017104;-86
2021/07/27 03:23:07;;;;;;;;;;;15.30;99.90;;;;;;5;36015337;39016286;-86
2021/07/27 03:26:21;;;;;;;;;;;15.30;99.90;;;;;;5;36014480;39018275;-88
2021/07/27 03:29:30;;;;;;;;;;;15.20;99.90;;;;;;5;36014578;39016277;-88
2021/07/27 03:32:49;;;;;;;;;;;15.20;99.90;;;;;;5;36013857;39766001;-86
2021/07/27 03:36:02;;;;;;;;;;;15.20;99.90;;;;;;5;36013659;39015649;-87
2021/07/27 03:39:16;;;;;;;;;;;15.20;99.90;;;;;;5;36013342;39016374;-87
2021/07/27 03:42:25;;;;;;;;;;;15.10;99.90;;;;;;5;36014661;39017478;-87
2021/07/27 03:45:38;;;;;;;;;;;15.20;99.90;;;;;;5;36013567;39015878;-87
2021/07/27 03:48:51;;;;;;;;;;;15.10;99.90;;;;;;5;36013145;39015565;-87
2021/07/27 03:52:04;;;;;;;;;;;15.10;99.90;;;;;;5;36014932;39015635;-88
2021/07/27 03:55:13;;;;;;;;;;;15.10;99.90;;;;;;5;36015772;39019612;-89
2021/07/27 03:58:31;;;;;;;;;;;15.00;99.90;;;;;;5;36015833;39016693;-88
2021/07/27 04:01:44;;;;;;;;;;;15.00;99.90;;;;;;5;36014331;39018964;-88
2021/07/27 04:04:58;;;;;;;;;;;14.90;99.90;;;;;;5;36015143;39766948;-87
2021/07/27 04:08:08;;;;;;;;;;;14.90;99.90;;;;;;5;36017232;39018807;-87
2021/07/27 04:15:10;;;;;;;;;;;14.90;99.90;;;;;;5;36018067;39019493;-87
2021/07/27 04:18:23;;;;;;;;;;;14.90;99.90;;;;;;5;36018366;39020485;-87
2021/07/27 04:21:33;;;;;;;;;;;14.90;99.90;;;;;;5;36018709;39021265;-87
2021/07/27 04:24:46;;;;;;;;;;;14.90;99.90;;;;;;5;36019551;39019950;-87
2021/07/27 04:27:59;;;;;;;;;;;14.80;99.90;;;;;;5;36019099;39021995;-87
2021/07/27 04:31:11;;;;;;;;;;;14.90;99.90;;;;;;5;36017886;39021872;-87
2021/07/27 04:34:21;;;;;;;;;;;14.90;99.90;;;;;;5;36019521;39020704;-87
2021/07/27 04:37:35;;;;;;;;;;;15.00;99.90;;;;;;5;36020094;39771488;-88
2021/07/27 04:40:51;;;;;;;;;;;15.10;99.90;;;;;;5;36019328;39021333;-87
2021/07/27 04:44:04;;;;;;;;;;;15.20;99.90;;;;;;5;36019666;39021701;-87
2021/07/27 04:47:14;;;;;;;;;;;15.30;99.90;;;;;;5;36018759;39020804;-87
2021/07/27 04:50:26;;;;;;;;;;;15.50;99.90;;;;;;5;36018980;39021154;-87
2021/07/27 04:53:41;;;;;;;;;;;15.70;99.90;;;;;;5;36019072;39021636;-87
2021/07/27 04:56:53;;;;;;;;;;;15.90;99.90;;;;;;5;36019802;39021355;-87
2021/07/27 05:00:06;;;;;;;;;;;16.10;99.90;;;;;;5;36021582;39020963;-88
2021/07/27 05:03:18;;;;;;;;;;;16.30;99.90;;;;;;5;36016445;39020013;-89
2021/07/27 05:06:32;;;;;;;;;;;16.50;99.90;;;;;;5;36016127;39020192;-89
2021/07/27 05:09:46;;;;;;;;;;;16.60;99.90;;;;;;5;36016677;39767139;-89
2021/07/27 05:12:57;;;;;;;;;;;16.60;99.90;;;;;;5;36015989;39018487;-89
2021/07/27 05:16:09;;;;;;;;;;;16.50;99.90;;;;;;5;36015485;39019762;-88
2021/07/27 05:19:22;;;;;;;;;;;16.50;99.90;;;;;;5;36017205;39020514;-88
2021/07/27 05:22:35;;;;;;;;;;;16.50;99.90;;;;;;5;36019233;39021917;-89
2021/07/27 05:25:45;;;;;;;;;;;16.50;99.90;;;;;;5;36018633;39021339;-88
2021/07/27 05:28:57;;;;;;;;;;;16.50;99.90;;;;;;5;36019047;39022844;-88
2021/07/27 05:32:10;;;;;;;;;;;16.60;99.90;;;;;;5;36020572;39023274;-89
2021/07/27 05:35:23;;;;;;;;;;;16.70;99.90;;;;;;5;36019022;39020755;-89
2021/07/27 05:38:32;;;;;;;;;;;16.80;99.90;;;;;;5;36018495;39020840;-88
2021/07/27 05:41:46;;;;;;;;;;;16.90;99.90;;;;;;5;36017615;39771256;-88
2021/07/27 05:44:59;;;;;;;;;;;17.00;99.90;;;;;;5;36019264;39022201;-89
2021/07/27 05:48:12;;;;;;;;;;;17.00;99.90;;;;;;5;36020231;39022072;-89
2021/07/27 05:51:22;;;;;;;;;;;17.10;99.90;;;;;;5;36017299;39021134;-89
2021/07/27 05:54:34;;;;;;;;;;;17.20;99.90;;;;;;5;36018455;39021875;-89
2021/07/27 05:57:47;;;;;;;;;;;17.30;99.90;;;;;;5;36019499;39021866;-88
2021/07/27 06:01:00;;;;;;;;;;;17.40;99.90;;;;;;5;36018813;39021725;-89
2021/07/27 06:04:09;;;;;;;;;;;17.50;99.90;;;;;;5;36019677;39021507;-89
2021/07/27 06:07:22;;;;;;;;;;;17.60;99.90;;;;;;5;36019094;39021595;-88
2021/07/27 06:10:35;;;;;;;;;;;17.70;99.90;;;;;;5;36019173;39021082;-89
2021/07/27 06:13:49;;;;;;;;;;;17.90;99.90;;;;;;5;36019099;39770253;-89
2021/07/27 06:16:59;;;;;;;;;;;18.00;99.90;;;;;;5;36018475;39019864;-88
2021/07/27 06:20:12;;;;;;;;;;;18.10;99.90;;;;;;5;36018246;39022608;-89
2021/07/27 06:23:24;;;;;;;;;;;18.10;99.90;;;;;;5;36019520;39021879;-89
2021/07/27 06:26:37;;;;;;;;;;;18.00;99.90;;;;;;5;36020271;39021495;-88
2021/07/27 06:29:48;;;;;;;;;;;18.20;99.90;;;;;;5;36019513;39021132;-88
2021/07/27 06:33:00;;;;;;;;;;;18.30;99.90;;;;;;5;36018902;39020773;-89
2021/07/27 06:36:13;;;;;;;;;;;18.40;99.90;;;;;;5;36018618;39020707;-88
2021/07/27 06:39:28;;;;;;;;;;;18.50;99.90;;;;;;5;36020005;39022197;-89
2021/07/27 06:42:38;;;;;;;;;;;18.50;99.90;;;;;;5;36020164;39021785;-89
2021/07/27 06:45:55;;;;;;;;;;;18.60;99.90;;;;;;5;36018429;39770220;-89
2021/07/27 06:49:08;;;;;;;;;;;18.70;99.90;;;;;;5;36018495;39021256;-88
2021/07/27 06:52:21;;;;;;;;;;;18.90;99.90;;;;;;5;36019152;39021557;-88
2021/07/27 06:55:31;;;;;;;;;;;19.00;99.90;;;;;;5;36019433;39020770;-88
2021/07/27 06:58:43;;;;;;;;;;;19.10;99.90;;;;;;5;36018411;39021727;-88
2021/07/27 07:01:56;;;;;;;;;;;19.10;99.90;;;;;;5;36018846;39020904;-89
2021/07/27 07:05:09;;;;;;;;;;;19.30;99.90;;;;;;5;36019115;39021764;-89
2021/07/27 07:08:19;;;;;;;;;;;19.30;99.90;;;;;;5;36018883;39020842;-88
2021/07/27 07:11:31;;;;;;;;;;;19.40;99.90;;;;;;5;36018610;39021036;-88
2021/07/27 07:14:44;;;;;;;;;;;19.60;99.90;;;;;;5;36016891;39020799;-88
2021/07/27 07:17:58;;;;;;;;;;;19.70;99.90;;;;;;5;36018918;39771128;-88
2021/07/27 07:21:08;;;;;;;;;;;19.80;99.90;;;;;;5;36019531;39020379;-88
2021/07/27 07:24:21;;;;;;;;;;;20.00;99.90;;;;;;5;36018379;39020849;-88
2021/07/27 07:27:34;;;;;;;;;;;20.10;99.90;;;;;;5;36017892;39020982;-88
2021/07/27 07:30:47;;;;;;;;;;;20.30;99.90;;;;;;5;36017441;39020291;-88
2021/07/27 07:33:58;;;;;;;;;;;20.40;99.40;;;;;;5;36018309;39022915;-88
2021/07/27 07:37:10;;;;;;;;;;;20.60;99.90;;;;;;5;36017910;39020778;-88
2021/07/27 07:40:23;;;;;;;;;;;20.80;99.90;;;;;;5;36018975;39021748;-88
2021/07/27 07:43:36;;;;;;;;;;;21.00;98.50;;;;;;5;36017647;39022331;-88
2021/07/27 07:46:46;;;;;;;;;;;21.10;98.20;;;;;;5;36019292;39021663;-88
2021/07/27 07:50:00;;;;;;;;;;;21.30;97.50;;;;;;5;36018482;39772323;-88
2021/07/27 07:53:13;;;;;;;;;;;21.50;95.80;;;;;;5;36019260;39021457;-88
2021/07/27 07:56:26;;;;;;;;;;;21.60;95.60;;;;;;5;36017636;39020750;-88
2021/07/27 07:59:36;;;;;;;;;;;21.80;95.40;;;;;;5;36018323;39021624;-88
2021/07/27 08:02:52;;;;;;;;;;;22.20;94.00;;;;;;5;36018335;39021010;-88
2021/07/27 08:06:45;;;;;;;;;;;22.60;93.10;;;;;;5;36018397;39024417;-88
2021/07/27 08:09:57;;;;;;;;;;;22.70;91.00;;;;;;5;36018114;39021259;-88
2021/07/27 08:13:07;;;;;;;;;;;23.00;90.40;;;;;;5;36018700;39021249;-88
2021/07/27 08:16:20;;;;;;;;;;;23.30;89.00;;;;;;5;36018030;39021545;-88
2021/07/27 08:19:33;;;;;;;;;;;23.60;87.40;;;;;;5;36019133;39020748;-88
2021/07/27 08:22:47;;;;;;;;;;;23.60;84.40;;;;;;5;36016453;39769753;-88
2021/07/27 08:25:59;;;;;;;;;;;23.70;85.90;;;;;;5;36019253;39019909;-88
2021/07/27 08:29:11;;;;;;;;;;;23.80;84.50;;;;;;5;36018455;39020362;-87
2021/07/27 08:32:24;;;;;;;;;;;24.10;85.20;;;;;;5;36016085;39019838;-87
2021/07/27 08:35:37;;;;;;;;;;;24.40;80.90;;;;;;5;36019510;39021136;-87
2021/07/27 08:38:46;;;;;;;;;;;24.70;78.70;;;;;;5;36018672;39020846;-87
2021/07/27 08:42:01;;;;;;;;;;;25.30;78.20;;;;;;5;36017632;39020877;-87
2021/07/27 08:45:14;;;;;;;;;;;26.20;75.80;;;;;;5;36019782;39021089;-89
2021/07/27 08:48:26;;;;;;;;;;;27.60;71.70;;;;;;5;36019165;39020618;-88
2021/07/27 08:51:38;;;;;;;;;;;29.20;67.10;;;;;;5;36020551;39019170;-87
2021/07/27 08:54:53;;;;;;;;;;;30.60;61.90;;;;;;5;36015510;39768795;-88
2021/07/27 08:58:05;;;;;;;;;;;32.40;56.50;;;;;;5;36017992;39018961;-87
2021/07/27 09:01:26;;;;;;;;;;;33.70;52.90;;;;;;5;36016342;39020540;-89
2021/07/27 09:04:36;;;;;;;;;;;34.90;49.70;;;;;;5;36016851;39019781;-89
2021/07/27 09:07:48;;;;;;;;;;;35.50;46.40;;;;;;5;36017621;39019830;-89
2021/07/27 09:11:01;;;;;;;;;;;36.50;45.50;;;;;;5;36017021;39018991;-88
2021/07/27 09:14:15;;;;;;;;;;;36.70;43.00;;;;;;5;36018632;39019043;-88
2021/07/27 09:17:26;;;;;;;;;;;36.40;44.40;;;;;;5;36016003;39019254;-89
2021/07/27 09:20:40;;;;;;;;;;;36.80;43.60;;;;;;5;36013929;39019079;-88
2021/07/27 09:23:54;;;;;;;;;;;38.00;43.20;;;;;;5;36014754;39017664;-87
2021/07/27 09:27:08;;;;;;;;;;;39.00;38.20;;;;;;5;36014070;39765288;-89
2021/07/27 09:30:21;;;;;;;;;;;39.30;39.00;;;;;;5;36015705;39021297;-87
2021/07/27 09:33:35;;;;;;;;;;;38.80;37.80;;;;;;5;36016431;39019149;-87
2021/07/27 09:37:01;;;;;;;;;;;39.10;39.60;;;;;;5;36019682;39020816;-87
2021/07/27 09:40:14;;;;;;;;;;;40.50;38.80;;;;;;5;36015514;39022574;-87
2021/07/27 09:43:25;;;;;;;;;;;41.70;37.40;;;;;;5;36019761;39021123;-87
2021/07/27 09:46:37;;;;;;;;;;;42.60;36.00;;;;;;5;36016295;39022221;-87
2021/07/27 09:49:50;;;;;;;;;;;42.70;35.80;;;;;;5;36017683;39020391;-87
2021/07/27 09:53:03;;;;;;;;;;;42.00;36.90;;;;;;5;36017321;39020984;-87
2021/07/27 09:56:13;;;;;;;;;;;40.50;38.10;;;;;;5;36019837;39020604;-87
2021/07/27 09:59:29;;;;;;;;;;;40.00;37.30;;;;;;5;36018174;39771074;-87
2021/07/27 10:02:42;;;;;;;;;;;38.70;39.20;;;;;;5;36019530;39020621;-87
2021/07/27 10:05:57;;;;;;;;;;;37.40;39.70;;;;;;5;36020334;39021277;-86
2021/07/27 10:09:06;;;;;;;;;;;35.70;42.60;;;;;;5;36018559;39021139;-86
2021/07/27 10:12:19;;;;;;;;;;;34.90;45.00;;;;;;5;36018068;39020227;-88
2021/07/27 10:15:37;;;;;;;;;;;34.90;44.50;;;;;;5;36019448;39020587;-89
2021/07/27 10:18:50;;;;;;;;;;;34.30;44.20;;;;;;5;36018707;39021566;-89
2021/07/27 10:22:04;;;;;;;;;;;35.00;43.10;;;;;;5;36018724;39021275;-89
2021/07/27 10:25:17;;;;;;;;;;;36.10;43.70;;;;;;5;36018418;39021436;-89
2021/07/27 10:28:30;;;;;;;;;;;37.60;42.90;;;;;;5;36019167;39019918;-89
2021/07/27 10:31:45;;;;;;;;;;;38.40;42.40;;;;;;5;36018160;39770701;-86
2021/07/27 10:34:54;;;;;;;;;;;39.30;41.00;;;;;;5;36018355;39021056;-89
2021/07/27 10:38:10;;;;;;;;;;;40.20;39.80;;;;;;5;36013309;39015927;-90
2021/07/27 10:41:33;;;;;;;;;;;41.20;38.50;;;;;;5;36015620;39020867;-87
2021/07/27 10:44:47;;;;;;;;;;;42.00;37.50;;;;;;5;36018215;39020657;-87
2021/07/27 10:47:57;;;;;;;;;;;43.00;37.60;;;;;;5;36017647;39018560;-88
2021/07/27 10:51:10;;;;;;;;;;;43.70;36.20;;;;;;5;36016634;39019864;-88
2021/07/27 10:54:29;;;;;;;;;;;44.50;35.90;;;;;;5;36019992;39021543;-88
2021/07/27 10:57:49;;;;;;;;;;;45.40;34.90;;;;;;5;36019616;39020319;-88
2021/07/27 11:01:09;;;;;;;;;;;45.40;33.40;;;;;;5;36017712;39021515;-87
2021/07/27 11:04:27;;;;;;;;;;;44.00;34.20;;;;;;5;36017772;39771061;-88
2021/07/27 11:07:40;;;;;;;;;;;45.50;35.20;;;;;;5;36018608;39021121;-87
2021/07/27 11:11:02;;;;;;;;;;;45.40;33.70;;;;;;5;36019332;39020674;-87
2021/07/27 11:14:19;;;;;;;;;;;46.40;33.90;;;;;;5;36017266;39021530;-89
2021/07/27 11:17:31;;;;;;;;;;;46.20;33.80;;;;;;5;36018221;39021000;-87
2021/07/27 11:20:44;;;;;;;;;;;46.70;33.00;;;;;;5;36019968;39022039;-88
2021/07/27 11:23:57;;;;;;;;;;;45.70;33.80;;;;;;5;36017853;39021261;-89
2021/07/27 11:27:12;;;;;;;;;;;46.40;34.40;;;;;;5;36018733;39020572;-88
2021/07/27 11:30:35;;;;;;;;;;;45.80;34.20;;;;;;5;36018050;39020866;-88
2021/07/27 11:33:51;;;;;;;;;;;46.20;33.80;;;;;;5;36019533;39021414;-88
2021/07/27 11:37:05;;;;;;;;;;;46.20;32.20;;;;;;5;36017260;39770415;-88
2021/07/27 11:40:23;;;;;;;;;;;46.50;32.50;;;;;;5;36019956;39020985;-88
2021/07/27 11:43:36;;;;;;;;;;;46.60;32.30;;;;;;5;36016200;39021386;-87
2021/07/27 11:46:50;;;;;;;;;;;47.30;32.50;;;;;;5;36019724;39022453;-88
2021/07/27 11:50:03;;;;;;;;;;;47.60;31.90;;;;;;5;36018560;39021752;-89
2021/07/27 11:53:23;;;;;;;;;;;48.20;32.00;;;;;;5;36017384;39021037;-88
2021/07/27 11:56:47;;;;;;;;;;;48.30;31.00;;;;;;5;36018477;39020812;-88
2021/07/27 12:00:06;;;;;;;;;;;47.40;31.40;;;;;;5;36017897;39021791;-89
2021/07/27 12:03:19;;;;;;;;;;;47.30;32.40;;;;;;5;36018280;39020316;-89
2021/07/27 12:06:29;;;;;;;;;;;47.50;32.30;;;;;;5;36018644;39021042;-88
2021/07/27 12:09:43;;;;;;;;;;;46.30;31.80;;;;;;5;36018986;39771136;-88
2021/07/27 12:12:55;;;;;;;;;;;44.20;34.00;;;;;;5;36019846;39019926;-88
2021/07/27 12:16:08;;;;;;;;;;;43.50;34.90;;;;;;5;36018994;39020941;-88
2021/07/27 12:19:18;;;;;;;;;;;43.40;35.50;;;;;;5;36017972;39020542;-88
2021/07/27 12:22:30;;;;;;;;;;;43.70;35.70;;;;;;5;36018221;39021916;-88
2021/07/27 12:25:43;;;;;;;;;;;42.90;36.10;;;;;;5;36018814;39022283;-88
2021/07/27 12:28:56;;;;;;;;;;;41.30;36.10;;;;;;5;36020218;39020564;-87
2021/07/27 12:32:06;;;;;;;;;;;40.10;37.40;;;;;;5;36018628;39020403;-88
2021/07/27 12:35:19;;;;;;;;;;;38.70;39.30;;;;;;5;36018386;39022099;-88
2021/07/27 12:38:35;;;;;;;;;;;37.20;41.00;;;;;;5;36018170;39022269;-87
2021/07/27 12:41:49;;;;;;;;;;;36.20;43.80;;;;;;5;36017883;39770233;-87
2021/07/27 12:44:59;;;;;;;;;;;35.00;45.20;;;;;;5;36017539;39020664;-87
2021/07/27 12:48:12;;;;;;;;;;;33.90;47.30;;;;;;5;36018291;39021619;-87
2021/07/27 12:51:24;;;;;;;;;;;33.00;48.40;;;;;;5;36018595;39021403;-87
2021/07/27 12:54:38;;;;;;;;;;;32.50;50.10;;;;;;5;36018726;39021201;-87
2021/07/27 12:57:47;;;;;;;;;;;32.00;51.00;;;;;;5;36018371;39021643;-87
2021/07/27 13:01:00;;;;;;;;;;;32.10;51.70;;;;;;5;36016764;39018821;-87
2021/07/27 13:04:13;;;;;;;;;;;32.00;51.90;;;;;;5;36016645;39020746;-87
2021/07/27 13:07:25;;;;;;;;;;;31.70;52.50;;;;;;5;36017077;39019290;-88
2021/07/27 13:10:35;;;;;;;;;;;32.50;51.70;;;;;;5;36018934;39020215;-87
2021/07/27 13:13:49;;;;;;;;;;;34.40;49.10;;;;;;5;36018241;39770947;-87
2021/07/27 13:17:02;;;;;;;;;;;36.20;45.70;;;;;;5;36017503;39020754;-87
2021/07/27 13:20:15;;;;;;;;;;;36.60;43.70;;;;;;5;36018490;39021170;-87
2021/07/27 13:23:25;;;;;;;;;;;37.10;44.00;;;;;;5;36019024;39021501;-87
2021/07/27 13:26:37;;;;;;;;;;;37.80;42.70;;;;;;5;36017932;39021944;-87
2021/07/27 13:29:50;;;;;;;;;;;38.60;42.30;;;;;;5;36018112;39021167;-87
2021/07/27 13:33:03;;;;;;;;;;;39.60;41.20;;;;;;5;36017814;39020625;-87
2021/07/27 13:36:13;;;;;;;;;;;40.50;40.40;;;;;;5;36019334;39021781;-88
2021/07/27 13:39:25;;;;;;;;;;;40.80;40.00;;;;;;5;36019220;39020138;-87
2021/07/27 13:42:38;;;;;;;;;;;40.60;39.50;;;;;;5;36020327;39020755;-87
2021/07/27 13:45:52;;;;;;;;;;;40.50;39.80;;;;;;5;36018267;39770423;-87
2021/07/27 13:49:02;;;;;;;;;;;39.80;41.10;;;;;;5;36020240;39020408;-87
2021/07/27 13:52:14;;;;;;;;;;;39.60;42.60;;;;;;5;36017599;39021088;-87
2021/07/27 13:55:27;;;;;;;;;;;39.40;41.70;;;;;;5;36018772;39021598;-87
2021/07/27 13:58:40;;;;;;;;;;;39.00;41.80;;;;;;5;36018926;39020947;-87
2021/07/27 14:01:49;;;;;;;;;;;38.80;42.00;;;;;;5;36018099;39020804;-86
2021/07/27 14:05:02;;;;;;;;;;;38.70;42.90;;;;;;5;36020019;39021839;-87
2021/07/27 14:08:16;;;;;;;;;;;38.60;42.80;;;;;;5;36017729;39021574;-89
2021/07/27 14:11:28;;;;;;;;;;;38.70;41.90;;;;;;5;36019288;39021105;-89
2021/07/27 14:14:38;;;;;;;;;;;38.50;41.90;;;;;;5;36018137;39021675;-88
2021/07/27 14:17:52;;;;;;;;;;;38.50;41.00;;;;;;5;36019187;39770924;-89
2021/07/27 14:21:05;;;;;;;;;;;38.40;43.00;;;;;;5;36017791;39021746;-88
2021/07/27 14:24:18;;;;;;;;;;;38.40;42.70;;;;;;5;36018132;39021329;-89
2021/07/27 14:27:27;;;;;;;;;;;38.20;42.20;;;;;;5;36017944;39020798;-88
2021/07/27 14:30:40;;;;;;;;;;;37.80;42.00;;;;;;5;36019949;39022275;-88
2021/07/27 14:33:55;;;;;;;;;;;37.60;44.10;;;;;;5;36018515;39020649;-88
2021/07/27 14:37:13;;;;;;;;;;;37.10;42.30;;;;;;5;36019675;41270706;-88
2021/07/27 14:40:27;;;;;;;;;;;36.60;43.70;;;;;;5;36018540;41271638;-88
2021/07/27 14:43:44;;;;;;;;;;;35.90;44.00;;;;;;5;36017247;41271142;-88
2021/07/27 14:47:03;;;;;;;;;;;35.60;44.60;;;;;;5;36019640;41273104;-88
2021/07/27 14:50:25;;;;;;;;;;;35.40;44.80;;;;;;5;36019943;42023039;-88
2021/07/27 14:53:40;;;;;;;;;;;35.20;45.20;;;;;;5;36018679;41271744;-88
2021/07/27 14:56:58;;;;;;;;;;;34.90;46.60;;;;;;5;36017805;41271892;-88
2021/07/27 15:00:18;;;;;;;;;;;34.90;45.80;;;;;;5;36017732;41271278;-88
2021/07/27 15:03:37;;;;;;;;;;;35.10;46.40;;;;;;5;36019834;41272440;-88
2021/07/27 15:06:51;;;;;;;;;;;34.60;45.70;;;;;;5;36018377;41270661;-89
2021/07/27 15:10:10;;;;;;;;;;;34.40;46.60;;;;;;5;36020301;41271867;-89
2021/07/27 15:13:30;;;;;;;;;;;34.40;47.50;;;;;;5;36019013;41270990;-88
2021/07/27 15:16:49;;;;;;;;;;;34.10;46.60;;;;;;5;36014881;41267814;-88
2021/07/27 15:20:03;;;;;;;;;;;33.90;47.50;;;;;;5;36017594;41268661;-88
2021/07/27 15:23:22;;;;;;;;;;;33.70;48.10;;;;;;5;36020094;42019327;-88
2021/07/27 15:26:42;;;;;;;;;;;33.50;49.60;;;;;;5;36018183;41270826;-88
2021/07/27 15:30:07;;;;;;;;;;;33.50;49.20;;;;;;5;36015534;41267190;-88
2021/07/27 15:33:21;;;;;;;;;;;33.30;49.00;;;;;;5;36018050;41269817;-88
2021/07/27 15:36:38;;;;;;;;;;;33.20;50.10;;;;;;5;36016150;41268640;-88
2021/07/27 15:39:58;;;;;;;;;;;32.90;50.40;;;;;;5;36018644;41269350;-88
2021/07/27 15:43:17;;;;;;;;;;;32.50;50.00;;;;;;5;36017474;41271332;-88
2021/07/27 15:46:32;;;;;;;;;;;32.20;50.10;;;;;;5;36014614;41265681;-88
2021/07/27 15:49:49;;;;;;;;;;;32.10;50.90;;;;;;5;36015072;41266007;-88
2021/07/27 15:53:08;;;;;;;;;;;31.80;50.30;;;;;;5;36018983;41271855;-87
2021/07/27 15:56:29;;;;;;;;;;;31.30;52.80;;;;;;5;36018554;42020798;-87
2021/07/27 15:59:44;;;;;;;;;;;31.20;53.20;;;;;;5;36018640;41270445;-87
2021/07/27 16:03:01;;;;;;;;;;;31.10;52.70;;;;;;5;36017926;41271856;-88
2021/07/27 16:06:20;;;;;;;;;;;30.90;53.50;;;;;;5;36018047;41270625;-88
2021/07/27 16:09:40;;;;;;;;;;;30.80;53.90;;;;;;5;36018993;41270950;-87
2021/07/27 16:12:54;;;;;;;;;;;30.50;53.90;;;;;;5;36018755;41271194;-88
2021/07/27 16:16:11;;;;;;;;;;;30.20;54.50;;;;;;5;36019511;41272222;-88
2021/07/27 16:19:31;;;;;;;;;;;29.90;54.00;;;;;;5;36018537;41272034;-88
2021/07/27 16:22:51;;;;;;;;;;;29.60;54.40;;;;;;5;36020595;41272596;-87
2021/07/27 16:26:06;;;;;;;;;;;29.60;56.20;;;;;;5;36018765;41270501;-87
2021/07/27 16:29:25;;;;;;;;;;;29.60;55.90;;;;;;5;36017903;42022264;-87
2021/07/27 16:32:44;;;;;;;;;;;29.60;55.30;;;;;;5;36017515;41273065;-87
2021/07/27 16:36:03;;;;;;;;;;;29.50;56.90;;;;;;5;36018709;41271808;-86
2021/07/27 16:39:18;;;;;;;;;;;29.50;53.70;;;;;;5;36018446;41270748;-88
2021/07/27 16:42:35;;;;;;;;;;;29.50;55.20;;;;;;5;36020942;41273263;-88
2021/07/27 16:45:54;;;;;;;;;;;29.30;55.30;;;;;;5;36018552;41271051;-88
2021/07/27 16:49:14;;;;;;;;;;;29.10;56.40;;;;;;5;36019330;41272472;-88
2021/07/27 16:52:28;;;;;;;;;;;28.90;55.90;;;;;;5;36019516;41272063;-88
2021/07/27 16:55:45;;;;;;;;;;;28.80;55.80;;;;;;5;36017384;41272525;-88
2021/07/27 16:59:04;;;;;;;;;;;28.60;58.60;;;;;;5;36018701;41272126;-88
2021/07/27 17:02:25;;;;;;;;;;;28.20;62.20;;;;;;5;36018930;42021772;-88
2021/07/27 17:05:40;;;;;;;;;;;27.90;63.30;;;;;;5;36019007;41271241;-88
2021/07/27 17:08:57;;;;;;;;;;;27.60;63.70;;;;;;5;36017606;41272316;-88
2021/07/27 17:12:16;;;;;;;;;;;27.30;65.00;;;;;;5;36018223;41272006;-88
2021/07/27 17:15:36;;;;;;;;;;;27.00;65.70;;;;;;5;36018537;41269675;-88
2021/07/27 17:18:50;;;;;;;;;;;26.70;65.90;;;;;;5;36014413;41267754;-89
2021/07/27 17:22:07;;;;;;;;;;;26.40;65.80;;;;;;5;36016024;41268781;-89
2021/07/27 17:25:27;;;;;;;;;;;26.30;67.00;;;;;;5;36015889;41269133;-88
2021/07/27 17:28:50;;;;;;;;;;;26.10;67.10;;;;;;5;36017018;41271105;-87
2021/07/27 17:32:05;;;;;;;;;;;26.00;68.10;;;;;;5;36017001;41268601;-89
2021/07/27 17:35:23;;;;;;;;;;;25.90;68.00;;;;;;5;36017884;42022365;-88
2021/07/27 17:38:43;;;;;;;;;;;25.70;68.30;;;;;;5;36014751;41267162;-88
2021/07/27 17:42:02;;;;;;;;;;;25.70;69.00;;;;;;5;36019589;41271964;-88
2021/07/27 17:45:16;;;;;;;;;;;25.60;69.70;;;;;;5;36018205;41271747;-86
2021/07/27 17:48:34;;;;;;;;;;;25.50;69.60;;;;;;5;36018018;41271826;-86
2021/07/27 17:51:54;;;;;;;;;;;25.40;69.70;;;;;;5;36018675;41271576;-88
2021/07/27 17:55:13;;;;;;;;;;;25.20;70.20;;;;;;5;36017411;41270726;-87
2021/07/27 17:58:27;;;;;;;;;;;25.10;70.40;;;;;;5;36018374;41271629;-88
2021/07/27 18:01:45;;;;;;;;;;;25.10;71.30;;;;;;5;36020043;41273616;-88
2021/07/27 18:05:06;;;;;;;;;;;25.00;71.70;;;;;;5;36018612;41269709;-86
2021/07/27 18:08:27;;;;;;;;;;;24.70;72.10;;;;;;5;36016984;42020854;-87
2021/07/27 18:11:42;;;;;;;;;;;24.60;73.50;;;;;;5;36020625;41271139;-86
2021/07/27 18:15:00;;;;;;;;;;;24.50;74.10;;;;;;5;36019986;41271030;-86
2021/07/27 18:18:21;;;;;;;;;;;24.40;74.00;;;;;;5;36018519;41271762;-87
2021/07/27 18:21:42;;;;;;;;;;;24.30;74.10;;;;;;5;36017549;41271259;-86
2021/07/27 18:24:56;;;;;;;;;;;24.20;72.80;;;;;;5;36018733;41270244;-87
2021/07/27 18:28:14;;;;;;;;;;;24.00;72.80;;;;;;5;36018309;41272145;-87
2021/07/27 18:31:33;;;;;;;;;;;24.00;73.80;;;;;;5;36019211;41270916;-87
2021/07/27 18:34:53;;;;;;;;;;;23.90;73.70;;;;;;5;36017364;41270758;-87
2021/07/27 18:38:07;;;;;;;;;;;23.90;75.10;;;;;;5;36018343;41271478;-88
2021/07/27 18:41:26;;;;;;;;;;;23.80;75.90;;;;;;5;36017175;42021277;-87
2021/07/27 18:44:45;;;;;;;;;;;23.70;76.40;;;;;;5;36018811;41272084;-88
2021/07/27 18:48:05;;;;;;;;;;;23.60;77.60;;;;;;5;36017438;41271516;-87
2021/07/27 18:51:19;;;;;;;;;;;23.50;78.80;;;;;;5;36016927;41269415;-88
2021/07/27 18:54:36;;;;;;;;;;;23.50;80.30;;;;;;5;36016301;41268108;-88
2021/07/27 18:57:56;;;;;;;;;;;23.30;80.70;;;;;;5;36013960;41271249;-88
2021/07/27 19:01:17;;;;;;;;;;;23.20;82.10;;;;;;5;36018822;41271577;-87
2021/07/27 19:04:31;;;;;;;;;;;23.10;83.60;;;;;;5;36018172;41271446;-88
2021/07/27 19:07:49;;;;;;;;;;;23.00;84.60;;;;;;5;36018564;41272005;-88
2021/07/27 19:11:10;;;;;;;;;;;22.90;86.80;;;;;;5;36019600;41272401;-88
2021/07/27 19:14:31;;;;;;;;;;;22.80;87.20;;;;;;5;36018259;42021332;-88
2021/07/27 19:17:45;;;;;;;;;;;22.70;87.00;;;;;;5;36018363;41271907;-88
2021/07/27 19:21:03;;;;;;;;;;;22.60;86.40;;;;;;5;36017982;41272868;-86
2021/07/27 19:24:22;;;;;;;;;;;22.60;86.20;;;;;;5;36017260;41270808;-87
2021/07/27 19:27:41;;;;;;;;;;;22.50;85.10;;;;;;5;36020001;41272346;-87
2021/07/27 19:30:56;;;;;;;;;;;22.40;85.00;;;;;;5;36018301;41270795;-87
2021/07/27 19:34:13;;;;;;;;;;;22.40;87.00;;;;;;5;36018112;41271878;-87
2021/07/27 19:37:34;;;;;;;;;;;22.30;87.60;;;;;;5;36016848;41271181;-87
2021/07/27 19:40:54;;;;;;;;;;;22.20;87.80;;;;;;5;36017723;41271313;-86
2021/07/27 19:44:11;;;;;;;;;;;22.20;90.00;;;;;;5;36018710;41272544;-87
2021/07/27 19:48:02;;;;;;;;;;;22.10;90.20;;;;;;5;36018153;42021291;-88
2021/07/27 19:51:19;;;;;;;;;;;22.00;87.40;;;;;;5;36018899;41269726;-88
2021/07/27 19:54:38;;;;;;;;;;;21.90;87.70;;;;;;5;36017826;41269098;-87
2021/07/27 19:57:52;;;;;;;;;;;21.80;87.60;;;;;;5;36018239;41271968;-88
2021/07/27 20:01:10;;;;;;;;;;;21.70;88.90;;;;;;5;36018591;41271282;-88
2021/07/27 20:04:29;;;;;;;;;;;21.60;89.20;;;;;;5;36018423;41271881;-88
2021/07/27 20:07:49;;;;;;;;;;;21.50;90.00;;;;;;5;36018823;41272632;-88
2021/07/27 20:11:03;;;;;;;;;;;21.50;90.40;;;;;;5;36018491;41271865;-88
2021/07/27 20:14:21;;;;;;;;;;;21.40;90.70;;;;;;5;36018655;41270332;-87
2021/07/27 20:17:40;;;;;;;;;;;21.40;89.50;;;;;;5;36019525;41269946;-88
2021/07/27 20:21:01;;;;;;;;;;;21.30;89.10;;;;;;5;36019313;42021173;-88
2021/07/27 20:24:15;;;;;;;;;;;21.30;90.30;;;;;;5;36016549;41271416;-88
2021/07/27 20:27:32;;;;;;;;;;;21.20;91.80;;;;;;5;36018196;41272030;-87
2021/07/27 20:30:52;;;;;;;;;;;21.10;92.20;;;;;;5;36018418;41271969;-88
2021/07/27 20:34:11;;;;;;;;;;;21.10;92.10;;;;;;5;36017842;41272166;-88
2021/07/27 20:37:25;;;;;;;;;;;21.10;92.60;;;;;;5;36018164;41272218;-88
2021/07/27 20:40:42;;;;;;;;;;;21.10;93.40;;;;;;5;36017488;41272043;-88
2021/07/27 20:44:03;;;;;;;;;;;21.10;94.40;;;;;;5;36019109;41272029;-88
2021/07/27 20:47:22;;;;;;;;;;;21.00;95.30;;;;;;5;36019722;41273185;-88
2021/07/27 20:50:37;;;;;;;;;;;21.00;96.30;;;;;;5;36018310;41271402;-88
2021/07/27 20:53:56;;;;;;;;;;;21.00;96.10;;;;;;5;36017944;42023657;-88
2021/07/27 20:57:15;;;;;;;;;;;21.00;97.00;;;;;;5;36014007;41266045;-88
2021/07/27 21:00:35;;;;;;;;;;;20.90;98.10;;;;;;5;36015022;41266958;-88